createdAt,value
2018-12-29T00:00:10.741Z,0.80
2018-12-29T00:05:03.096Z,0.70
2018-12-29T00:09:56.206Z,0.60
2018-12-29T00:14:54.936Z,0.50
2018-12-29T00:19:43.068Z,0.60
2018-12-29T00:24:35.585Z,0.60
2018-12-29T00:29:28.414Z,0.60
2018-12-29T00:34:21.205Z,0.50
2018-12-29T00:49:08.224Z,0.60
2018-12-29T00:54:00.348Z,0.50
2018-12-29T00:58:52.537Z,0.60
2018-12-29T01:03:44.687Z,0.70
2018-12-29T01:08:36.746Z,0.70
2018-12-29T01:13:29.056Z,0.60
2018-12-29T01:18:21.265Z,0.50
2018-12-29T01:23:13.506Z,0.50
2018-12-29T01:28:05.653Z,0.40
2018-12-29T01:32:59.597Z,0.40
2018-12-29T01:37:52.138Z,0.40
2018-12-29T01:42:45.299Z,0.40
2018-12-29T01:47:37.887Z,0.40
2018-12-29T01:52:31.600Z,0.30
2018-12-29T01:57:24.878Z,0.40
2018-12-29T02:02:17.955Z,0.40
2018-12-29T02:07:11.722Z,0.40
2018-12-29T02:12:05.111Z,0.50
2018-12-29T02:16:58.688Z,0.50
2018-12-29T02:21:55.016Z,0.50
2018-12-29T02:26:48.365Z,0.50
2018-12-29T02:31:42.918Z,0.60
2018-12-29T02:36:36.497Z,0.60
2018-12-29T02:41:33.654Z,0.60
2018-12-29T02:46:27.725Z,0.50
2018-12-29T02:51:21.761Z,0.50
2018-12-29T02:56:15.832Z,0.50
2018-12-29T03:01:10.386Z,0.50
2018-12-29T03:06:02.739Z,0.60
2018-12-29T03:10:56.677Z,0.60
2018-12-29T03:15:50.804Z,0.60
2018-12-29T03:20:43.473Z,0.60
2018-12-29T03:25:36.062Z,0.70
2018-12-29T03:30:28.945Z,0.70
2018-12-29T03:35:21.536Z,0.70
2018-12-29T03:40:17.035Z,0.70
2018-12-29T03:45:09.634Z,0.80
2018-12-29T03:50:02.228Z,0.80
2018-12-29T03:54:55.139Z,0.70
2018-12-29T03:59:47.612Z,0.80
2018-12-29T04:04:40.169Z,0.80
2018-12-29T04:14:31.689Z,0.70
2018-12-29T04:19:25.048Z,0.70
2018-12-29T04:24:17.804Z,0.70
2018-12-29T04:29:10.259Z,0.70
2018-12-29T04:34:02.833Z,0.80
2018-12-29T04:38:55.767Z,0.80
2018-12-29T04:43:48.544Z,0.80
2018-12-29T04:48:42.874Z,0.80
2018-12-29T04:53:35.642Z,0.80
2018-12-29T04:58:32.017Z,0.90
2018-12-29T05:03:24.903Z,0.90
2018-12-29T05:08:17.775Z,0.90
2018-12-29T05:13:14.626Z,0.90
2018-12-29T05:18:11.534Z,0.90
2018-12-29T05:23:04.618Z,0.80
2018-12-29T05:27:57.267Z,0.80
2018-12-29T05:32:50.006Z,0.90
2018-12-29T05:37:45.461Z,0.90
2018-12-29T05:42:40.071Z,0.90
2018-12-29T05:47:34.099Z,0.80
2018-12-29T05:52:31.829Z,0.80
2018-12-29T05:57:30.204Z,0.90
2018-12-29T06:02:22.692Z,0.90
2018-12-29T06:07:15.319Z,0.90
2018-12-29T06:12:08.157Z,0.90
2018-12-29T06:17:00.982Z,0.90
2018-12-29T06:21:53.600Z,0.90
2018-12-29T06:26:50.786Z,0.90
2018-12-29T06:31:43.607Z,0.80
2018-12-29T06:36:41.625Z,0.70
2018-12-29T06:41:34.718Z,0.70
2018-12-29T06:46:27.203Z,0.70
2018-12-29T06:51:20.100Z,0.70
2018-12-29T06:56:12.594Z,0.80
2018-12-29T07:01:05.194Z,0.90
2018-12-29T07:05:57.885Z,0.90
2018-12-29T07:10:50.529Z,0.90
2018-12-29T07:15:43.234Z,0.90
2018-12-29T07:20:35.866Z,0.90
2018-12-29T07:25:28.131Z,1.00
2018-12-29T07:30:21.883Z,1.00
2018-12-29T07:35:14.455Z,1.10
2018-12-29T07:40:07.217Z,1.10
2018-12-29T07:45:02.263Z,1.10
2018-12-29T07:54:56.147Z,1.10
2018-12-29T08:04:48.239Z,1.10
2018-12-29T08:09:40.828Z,1.20
2018-12-29T08:14:33.800Z,1.20
2018-12-29T08:19:26.221Z,1.20
2018-12-29T08:24:18.926Z,1.30
2018-12-29T08:29:11.280Z,1.20
2018-12-29T08:34:04.789Z,1.20
2018-12-29T08:38:57.504Z,1.20
2018-12-29T08:43:49.969Z,1.20
2018-12-29T08:48:42.335Z,1.30
2018-12-29T08:53:34.904Z,1.30
2018-12-29T08:58:27.310Z,1.40
2018-12-29T09:03:20.522Z,1.40
2018-12-29T09:08:12.487Z,1.40
2018-12-29T09:13:05.618Z,1.50
2018-12-29T09:17:58.009Z,1.60
2018-12-29T09:22:56.625Z,1.60
2018-12-29T09:39:22.020Z,1.80
2018-12-29T09:56:24.578Z,1.80
2018-12-29T10:01:17.235Z,1.80
2018-12-29T10:06:09.550Z,1.90
2018-12-29T10:11:01.870Z,1.90
2018-12-29T10:15:54.030Z,2.00
2018-12-29T10:20:46.471Z,2.00
2018-12-29T10:25:38.605Z,2.00
2018-12-29T10:30:30.757Z,1.90
2018-12-29T10:35:23.113Z,2.00
2018-12-29T10:40:15.439Z,2.00
2018-12-29T10:45:07.746Z,2.10
2018-12-29T10:49:59.861Z,2.10
2018-12-29T10:54:52.113Z,2.10
2018-12-29T10:59:44.306Z,2.10
2018-12-29T11:04:36.507Z,2.20
2018-12-29T11:09:28.478Z,2.20
2018-12-29T11:14:20.669Z,2.30
2018-12-29T11:19:12.576Z,2.30
2018-12-29T11:24:05.105Z,2.30
2018-12-29T11:28:57.422Z,2.30
2018-12-29T11:33:49.462Z,2.30
2018-12-29T11:38:41.593Z,2.30
2018-12-29T11:43:33.638Z,2.40
2018-12-29T11:48:25.941Z,2.40
2018-12-29T11:53:18.187Z,2.30
2018-12-29T11:58:10.737Z,2.40
2018-12-29T12:03:03.177Z,2.40
2018-12-29T12:07:55.562Z,2.30
2018-12-29T12:12:48.044Z,2.40
2018-12-29T12:17:40.370Z,2.30
2018-12-29T12:22:35.584Z,2.30
2018-12-29T12:27:33.770Z,2.40
2018-12-29T12:32:26.452Z,2.40
2018-12-29T12:37:20.364Z,2.40
2018-12-29T12:42:27.315Z,2.40
2018-12-29T12:47:18.943Z,2.40
2018-12-29T12:52:11.457Z,2.50
2018-12-29T12:57:03.652Z,2.40
2018-12-29T13:01:56.110Z,2.40
2018-12-29T13:06:50.186Z,2.50
2018-12-29T13:11:42.237Z,2.60
2018-12-29T13:16:34.746Z,2.60
2018-12-29T13:21:27.278Z,2.70
2018-12-29T13:26:19.628Z,2.80
2018-12-29T13:31:12.132Z,2.80
2018-12-29T13:36:06.712Z,2.80
2018-12-29T13:40:59.319Z,2.80
2018-12-29T13:45:51.388Z,2.80
2018-12-29T13:50:43.466Z,2.80
2018-12-29T13:55:36.049Z,2.80
2018-12-29T14:00:28.251Z,2.80
2018-12-29T14:05:20.324Z,2.70
2018-12-29T14:10:12.849Z,2.60
2018-12-29T14:15:04.976Z,2.60
2018-12-29T14:19:57.241Z,2.60
2018-12-29T14:24:49.834Z,2.60
2018-12-29T14:29:42.158Z,2.60
2018-12-29T14:34:34.778Z,2.60
2018-12-29T14:39:27.556Z,2.50
2018-12-29T14:44:20.115Z,2.50
2018-12-29T14:49:12.683Z,2.40
2018-12-29T14:54:05.030Z,2.40
2018-12-29T14:58:57.406Z,2.50
2018-12-29T15:03:49.899Z,2.50
2018-12-29T15:08:41.985Z,2.50
2018-12-29T15:13:34.733Z,2.40
2018-12-29T15:18:27.105Z,2.40
2018-12-29T15:23:19.620Z,2.30
2018-12-29T15:28:12.350Z,2.30
2018-12-29T15:33:04.834Z,2.30
2018-12-29T15:37:58.523Z,2.30
2018-12-29T15:42:50.958Z,2.30
2018-12-29T15:47:43.553Z,2.40
2018-12-29T15:52:35.827Z,2.50
2018-12-29T15:57:29.798Z,2.60
2018-12-29T16:02:21.870Z,2.60
2018-12-29T16:07:14.213Z,2.60
2018-12-29T16:12:06.313Z,2.60
2018-12-29T16:16:58.948Z,2.50
2018-12-29T16:21:51.038Z,2.50
2018-12-29T16:26:43.879Z,2.50
2018-12-29T16:31:36.391Z,2.40
2018-12-29T16:36:30.088Z,2.40
2018-12-29T16:41:22.509Z,2.40
2018-12-29T16:46:17.131Z,2.40
2018-12-29T16:51:11.515Z,2.40
2018-12-29T16:56:04.240Z,2.40
2018-12-29T17:00:56.571Z,2.50
2018-12-29T17:05:48.774Z,2.50
2018-12-29T17:10:41.347Z,2.50
2018-12-29T17:15:33.623Z,2.50
2018-12-29T17:20:26.423Z,2.50
2018-12-29T17:25:19.032Z,2.60
2018-12-29T17:30:14.747Z,2.60
2018-12-29T17:35:08.950Z,2.60
2018-12-29T17:40:02.190Z,2.60
2018-12-29T17:45:14.027Z,2.60
2018-12-29T17:50:15.220Z,2.60
2018-12-29T17:55:09.409Z,2.50
2018-12-29T18:00:02.011Z,2.50
2018-12-29T18:04:54.417Z,2.60
2018-12-29T18:09:47.934Z,2.60
2018-12-29T18:14:40.149Z,2.70
2018-12-29T18:19:34.256Z,2.70
2018-12-29T18:24:28.416Z,2.80
2018-12-29T18:29:22.929Z,2.90
2018-12-29T18:34:15.814Z,2.90
2018-12-29T18:39:08.314Z,3.00
2018-12-29T18:44:01.098Z,3.00
2018-12-29T18:48:55.172Z,3.00
2018-12-29T18:53:47.610Z,3.00
2018-12-29T18:58:40.262Z,3.00
2018-12-29T19:03:34.007Z,3.00
2018-12-29T19:08:27.043Z,3.00
2018-12-29T19:13:19.420Z,3.00
2018-12-29T19:18:16.764Z,3.00
2018-12-29T19:23:11.693Z,2.90
2018-12-29T19:28:03.738Z,3.00
2018-12-29T19:32:59.734Z,3.00
2018-12-29T19:37:53.469Z,3.00
2018-12-29T19:42:49.116Z,3.10
2018-12-29T19:47:41.950Z,3.00
2018-12-29T19:52:34.588Z,3.10
2018-12-29T19:57:28.759Z,3.10
2018-12-29T20:02:21.400Z,3.10
2018-12-29T20:07:14.304Z,3.10
2018-12-29T20:12:14.380Z,3.10
2018-12-29T20:17:08.780Z,3.10
2018-12-29T20:22:00.937Z,3.10
2018-12-29T20:26:54.665Z,3.10
2018-12-29T20:31:47.307Z,3.10
2018-12-29T20:36:39.947Z,3.10
2018-12-29T20:41:32.724Z,3.10
2018-12-29T20:46:26.342Z,3.10
2018-12-29T20:51:19.104Z,3.10
2018-12-29T20:56:12.046Z,3.20
2018-12-29T21:01:04.169Z,3.20
2018-12-29T21:05:56.405Z,3.20
2018-12-29T21:10:49.421Z,3.20
2018-12-29T21:15:42.141Z,3.20
2018-12-29T21:20:35.951Z,3.20
2018-12-29T21:25:27.849Z,3.20
2018-12-29T21:30:20.671Z,3.30
2018-12-29T21:35:13.150Z,3.30
2018-12-29T21:40:06.045Z,3.30
2018-12-29T21:45:22.787Z,3.30
2018-12-29T21:50:25.015Z,3.40
2018-12-29T22:00:09.688Z,3.40
2018-12-29T22:05:01.622Z,3.40
2018-12-29T22:09:53.937Z,3.40
2018-12-29T22:14:46.152Z,3.40
2018-12-29T22:19:38.620Z,3.40
2018-12-29T22:24:31.169Z,3.40
2018-12-29T22:29:26.948Z,3.40
2018-12-29T22:34:19.593Z,3.50
2018-12-29T22:39:14.337Z,3.50
2018-12-29T22:44:07.990Z,3.50
2018-12-29T22:49:00.162Z,3.50
2018-12-29T22:53:52.646Z,3.50
2018-12-29T22:58:45.892Z,3.60
2018-12-29T23:03:38.774Z,3.60
2018-12-29T23:08:33.445Z,3.60
2018-12-29T23:13:26.263Z,3.70
2018-12-29T23:18:19.917Z,3.70
2018-12-29T23:23:13.273Z,3.70
2018-12-29T23:28:05.553Z,3.80
2018-12-29T23:32:58.139Z,3.80
2018-12-29T23:37:50.562Z,3.80
2018-12-29T23:42:42.854Z,3.70
2018-12-29T23:47:35.470Z,3.80
2018-12-29T23:52:27.767Z,3.80
2018-12-29T23:57:20.321Z,3.80
